sensor_id;sensor_type;location;lat;lon;timestamp;P1;durP1;ratioP1;P2;durP2;ratioP2
18887;SDS011;9576;47.792;9.628;2023-09-07T00:01:06;8.57;;;5.22;;
18887;SDS011;9576;47.792;9.628;2023-09-07T00:04:10;8.95;;;5.15;;
18887;SDS011;9576;47.792;9.628;2023-09-07T00:07:13;7.03;;;4.95;;
18887;SDS011;9576;47.792;9.628;2023-09-07T00:10:14;5.82;;;5.00;;
18887;SDS011;9576;47.792;9.628;2023-09-07T00:13:17;7.43;;;5.40;;
18887;SDS011;9576;47.792;9.628;2023-09-07T00:16:19;9.25;;;5.50;;
18887;SDS011;9576;47.792;9.628;2023-09-07T00:19:22;7.88;;;5.93;;
18887;SDS011;9576;47.792;9.628;2023-09-07T00:22:24;7.45;;;4.95;;
18887;SDS011;9576;47.792;9.628;2023-09-07T00:25:26;7.32;;;4.80;;
18887;SDS011;9576;47.792;9.628;2023-09-07T00:28:28;10.10;;;5.20;;
18887;SDS011;9576;47.792;9.628;2023-09-07T00:31:30;8.80;;;5.57;;
18887;SDS011;9576;47.792;9.628;2023-09-07T00:34:34;7.85;;;4.85;;
18887;SDS011;9576;47.792;9.628;2023-09-07T00:37:36;16.50;;;4.82;;
18887;SDS011;9576;47.792;9.628;2023-09-07T00:40:42;8.52;;;5.32;;
18887;SDS011;9576;47.792;9.628;2023-09-07T00:43:44;7.22;;;5.40;;
18887;SDS011;9576;47.792;9.628;2023-09-07T00:46:46;9.07;;;5.05;;
18887;SDS011;9576;47.792;9.628;2023-09-07T00:49:49;7.85;;;4.95;;
18887;SDS011;9576;47.792;9.628;2023-09-07T00:52:51;8.60;;;5.40;;
18887;SDS011;9576;47.792;9.628;2023-09-07T00:55:53;16.35;;;5.15;;
18887;SDS011;9576;47.792;9.628;2023-09-07T00:58:56;7.65;;;5.70;;
18887;SDS011;9576;47.792;9.628;2023-09-07T01:02:00;9.40;;;5.23;;
18887;SDS011;9576;47.792;9.628;2023-09-07T01:05:03;14.52;;;5.57;;
18887;SDS011;9576;47.792;9.628;2023-09-07T01:08:08;9.52;;;4.82;;
18887;SDS011;9576;47.792;9.628;2023-09-07T01:11:15;12.77;;;5.07;;
18887;SDS011;9576;47.792;9.628;2023-09-07T01:14:18;8.57;;;5.00;;
18887;SDS011;9576;47.792;9.628;2023-09-07T01:17:20;7.03;;;4.88;;
18887;SDS011;9576;47.792;9.628;2023-09-07T01:20:24;9.35;;;5.40;;
18887;SDS011;9576;47.792;9.628;2023-09-07T01:23:28;7.70;;;5.15;;
18887;SDS011;9576;47.792;9.628;2023-09-07T01:26:30;7.30;;;4.88;;
18887;SDS011;9576;47.792;9.628;2023-09-07T01:29:32;8.57;;;5.35;;
18887;SDS011;9576;47.792;9.628;2023-09-07T01:32:34;6.55;;;5.28;;
18887;SDS011;9576;47.792;9.628;2023-09-07T01:35:36;14.63;;;5.65;;
18887;SDS011;9576;47.792;9.628;2023-09-07T01:38:40;12.93;;;5.43;;
18887;SDS011;9576;47.792;9.628;2023-09-07T01:41:42;9.60;;;5.57;;
18887;SDS011;9576;47.792;9.628;2023-09-07T01:44:44;8.35;;;5.40;;
18887;SDS011;9576;47.792;9.628;2023-09-07T01:47:46;7.50;;;5.15;;
18887;SDS011;9576;47.792;9.628;2023-09-07T01:50:51;6.50;;;4.90;;
18887;SDS011;9576;47.792;9.628;2023-09-07T01:53:55;8.77;;;5.82;;
18887;SDS011;9576;47.792;9.628;2023-09-07T01:56:57;9.02;;;5.35;;
18887;SDS011;9576;47.792;9.628;2023-09-07T01:59:59;8.93;;;5.55;;
18887;SDS011;9576;47.792;9.628;2023-09-07T02:03:01;8.90;;;5.30;;
18887;SDS011;9576;47.792;9.628;2023-09-07T02:06:03;10.20;;;5.57;;
18887;SDS011;9576;47.792;9.628;2023-09-07T02:09:06;7.53;;;5.57;;
18887;SDS011;9576;47.792;9.628;2023-09-07T02:12:08;9.38;;;6.30;;
18887;SDS011;9576;47.792;9.628;2023-09-07T02:15:10;7.75;;;5.65;;
18887;SDS011;9576;47.792;9.628;2023-09-07T02:18:12;10.88;;;6.22;;
18887;SDS011;9576;47.792;9.628;2023-09-07T02:21:15;8.73;;;5.63;;
18887;SDS011;9576;47.792;9.628;2023-09-07T02:24:18;8.23;;;5.35;;
18887;SDS011;9576;47.792;9.628;2023-09-07T02:27:20;8.30;;;5.72;;
18887;SDS011;9576;47.792;9.628;2023-09-07T02:30:22;9.38;;;5.85;;
18887;SDS011;9576;47.792;9.628;2023-09-07T02:33:23;9.82;;;5.60;;
18887;SDS011;9576;47.792;9.628;2023-09-07T02:36:25;16.10;;;6.45;;
18887;SDS011;9576;47.792;9.628;2023-09-07T02:39:29;11.55;;;5.63;;
18887;SDS011;9576;47.792;9.628;2023-09-07T02:42:30;10.23;;;6.03;;
18887;SDS011;9576;47.792;9.628;2023-09-07T02:45:32;9.75;;;5.30;;
18887;SDS011;9576;47.792;9.628;2023-09-07T02:48:34;9.27;;;5.38;;
18887;SDS011;9576;47.792;9.628;2023-09-07T02:51:36;8.85;;;5.90;;
18887;SDS011;9576;47.792;9.628;2023-09-07T02:54:39;7.80;;;5.72;;
18887;SDS011;9576;47.792;9.628;2023-09-07T02:57:43;11.00;;;5.95;;
18887;SDS011;9576;47.792;9.628;2023-09-07T03:00:45;11.88;;;6.03;;
18887;SDS011;9576;47.792;9.628;2023-09-07T03:03:47;8.45;;;4.95;;
18887;SDS011;9576;47.792;9.628;2023-09-07T03:06:49;11.55;;;6.28;;
18887;SDS011;9576;47.792;9.628;2023-09-07T03:09:52;8.43;;;6.30;;
18887;SDS011;9576;47.792;9.628;2023-09-07T03:12:54;7.75;;;5.65;;
18887;SDS011;9576;47.792;9.628;2023-09-07T03:15:56;8.20;;;6.05;;
18887;SDS011;9576;47.792;9.628;2023-09-07T03:18:58;14.15;;;6.82;;
18887;SDS011;9576;47.792;9.628;2023-09-07T03:22:00;9.18;;;4.93;;
18887;SDS011;9576;47.792;9.628;2023-09-07T03:25:05;10.13;;;5.90;;
18887;SDS011;9576;47.792;9.628;2023-09-07T03:28:07;11.52;;;5.25;;
18887;SDS011;9576;47.792;9.628;2023-09-07T03:31:09;7.63;;;5.82;;
18887;SDS011;9576;47.792;9.628;2023-09-07T03:34:11;11.00;;;6.00;;
18887;SDS011;9576;47.792;9.628;2023-09-07T03:37:13;8.93;;;5.03;;
18887;SDS011;9576;47.792;9.628;2023-09-07T03:40:16;8.75;;;5.85;;
18887;SDS011;9576;47.792;9.628;2023-09-07T03:43:18;12.40;;;5.65;;
18887;SDS011;9576;47.792;9.628;2023-09-07T03:46:20;8.70;;;5.65;;
18887;SDS011;9576;47.792;9.628;2023-09-07T03:49:22;8.85;;;5.78;;
18887;SDS011;9576;47.792;9.628;2023-09-07T03:52:24;8.05;;;5.65;;
18887;SDS011;9576;47.792;9.628;2023-09-07T03:55:28;7.38;;;6.00;;
18887;SDS011;9576;47.792;9.628;2023-09-07T03:58:30;8.82;;;5.53;;
18887;SDS011;9576;47.792;9.628;2023-09-07T04:01:31;20.67;;;6.90;;
18887;SDS011;9576;47.792;9.628;2023-09-07T04:04:33;11.63;;;5.88;;
18887;SDS011;9576;47.792;9.628;2023-09-07T04:07:35;11.70;;;6.47;;
18887;SDS011;9576;47.792;9.628;2023-09-07T04:10:39;9.57;;;5.40;;
18887;SDS011;9576;47.792;9.628;2023-09-07T04:13:41;15.93;;;5.40;;
18887;SDS011;9576;47.792;9.628;2023-09-07T04:16:42;15.55;;;5.55;;
18887;SDS011;9576;47.792;9.628;2023-09-07T04:19:45;8.13;;;5.53;;
18887;SDS011;9576;47.792;9.628;2023-09-07T04:22:47;11.00;;;6.03;;
18887;SDS011;9576;47.792;9.628;2023-09-07T04:25:50;12.77;;;5.47;;
18887;SDS011;9576;47.792;9.628;2023-09-07T04:28:52;12.18;;;6.13;;
18887;SDS011;9576;47.792;9.628;2023-09-07T04:31:54;10.95;;;6.20;;
18887;SDS011;9576;47.792;9.628;2023-09-07T04:34:56;12.52;;;5.90;;
18887;SDS011;9576;47.792;9.628;2023-09-07T04:37:59;12.48;;;6.85;;
18887;SDS011;9576;47.792;9.628;2023-09-07T04:41:06;15.20;;;6.95;;
18887;SDS011;9576;47.792;9.628;2023-09-07T04:44:09;10.52;;;6.40;;
18887;SDS011;9576;47.792;9.628;2023-09-07T04:47:11;13.10;;;5.88;;
18887;SDS011;9576;47.792;9.628;2023-09-07T04:50:13;11.60;;;6.43;;
18887;SDS011;9576;47.792;9.628;2023-09-07T04:53:14;8.63;;;5.88;;
18887;SDS011;9576;47.792;9.628;2023-09-07T04:56:18;14.68;;;7.18;;
18887;SDS011;9576;47.792;9.628;2023-09-07T04:59:21;12.70;;;6.95;;
18887;SDS011;9576;47.792;9.628;2023-09-07T05:02:23;12.63;;;7.10;;
18887;SDS011;9576;47.792;9.628;2023-09-07T05:05:25;11.75;;;7.07;;
18887;SDS011;9576;47.792;9.628;2023-09-07T05:08:27;8.60;;;6.13;;
18887;SDS011;9576;47.792;9.628;2023-09-07T05:11:32;11.90;;;7.03;;
18887;SDS011;9576;47.792;9.628;2023-09-07T05:14:34;20.88;;;7.07;;
18887;SDS011;9576;47.792;9.628;2023-09-07T05:17:36;12.90;;;6.10;;
18887;SDS011;9576;47.792;9.628;2023-09-07T05:20:39;14.20;;;7.18;;
18887;SDS011;9576;47.792;9.628;2023-09-07T05:23:41;12.00;;;7.93;;
18887;SDS011;9576;47.792;9.628;2023-09-07T05:26:44;11.68;;;7.55;;
18887;SDS011;9576;47.792;9.628;2023-09-07T05:29:46;12.65;;;7.53;;
18887;SDS011;9576;47.792;9.628;2023-09-07T05:32:48;23.52;;;8.20;;
18887;SDS011;9576;47.792;9.628;2023-09-07T05:35:50;9.10;;;5.88;;
18887;SDS011;9576;47.792;9.628;2023-09-07T05:38:52;13.48;;;7.47;;
18887;SDS011;9576;47.792;9.628;2023-09-07T05:41:55;19.15;;;7.50;;
18887;SDS011;9576;47.792;9.628;2023-09-07T05:44:57;14.55;;;7.40;;
18887;SDS011;9576;47.792;9.628;2023-09-07T05:47:59;16.67;;;8.15;;
18887;SDS011;9576;47.792;9.628;2023-09-07T05:51:01;20.45;;;8.77;;
18887;SDS011;9576;47.792;9.628;2023-09-07T05:54:03;12.75;;;8.40;;
18887;SDS011;9576;47.792;9.628;2023-09-07T05:57:07;19.60;;;7.53;;
18887;SDS011;9576;47.792;9.628;2023-09-07T06:00:09;13.13;;;7.85;;
18887;SDS011;9576;47.792;9.628;2023-09-07T06:03:12;11.27;;;6.60;;
18887;SDS011;9576;47.792;9.628;2023-09-07T06:06:14;13.68;;;7.82;;
18887;SDS011;9576;47.792;9.628;2023-09-07T06:09:16;19.48;;;7.07;;
18887;SDS011;9576;47.792;9.628;2023-09-07T06:12:19;10.88;;;7.40;;
18887;SDS011;9576;47.792;9.628;2023-09-07T06:15:21;18.42;;;7.50;;
18887;SDS011;9576;47.792;9.628;2023-09-07T06:18:23;12.05;;;7.93;;
18887;SDS011;9576;47.792;9.628;2023-09-07T06:21:25;13.25;;;6.75;;
18887;SDS011;9576;47.792;9.628;2023-09-07T06:24:27;18.25;;;7.57;;
18887;SDS011;9576;47.792;9.628;2023-09-07T06:27:30;12.40;;;8.00;;
18887;SDS011;9576;47.792;9.628;2023-09-07T06:30:32;14.73;;;7.25;;
18887;SDS011;9576;47.792;9.628;2023-09-07T06:33:34;16.60;;;7.82;;
18887;SDS011;9576;47.792;9.628;2023-09-07T06:36:36;9.93;;;6.50;;
18887;SDS011;9576;47.792;9.628;2023-09-07T06:39:38;15.73;;;7.85;;
18887;SDS011;9576;47.792;9.628;2023-09-07T06:42:44;11.02;;;7.68;;
18887;SDS011;9576;47.792;9.628;2023-09-07T06:45:46;13.80;;;8.10;;
18887;SDS011;9576;47.792;9.628;2023-09-07T06:48:48;17.25;;;8.18;;
18887;SDS011;9576;47.792;9.628;2023-09-07T06:51:49;11.90;;;7.85;;
18887;SDS011;9576;47.792;9.628;2023-09-07T06:54:52;13.27;;;7.78;;
18887;SDS011;9576;47.792;9.628;2023-09-07T06:57:55;18.40;;;8.38;;
18887;SDS011;9576;47.792;9.628;2023-09-07T07:00:57;11.88;;;7.97;;
18887;SDS011;9576;47.792;9.628;2023-09-07T07:04:00;11.60;;;7.47;;
18887;SDS011;9576;47.792;9.628;2023-09-07T07:07:02;17.05;;;7.60;;
18887;SDS011;9576;47.792;9.628;2023-09-07T07:10:04;12.82;;;7.43;;
18887;SDS011;9576;47.792;9.628;2023-09-07T07:13:09;12.38;;;7.90;;
18887;SDS011;9576;47.792;9.628;2023-09-07T07:16:11;17.15;;;8.68;;
18887;SDS011;9576;47.792;9.628;2023-09-07T07:19:13;19.20;;;8.52;;
18887;SDS011;9576;47.792;9.628;2023-09-07T07:22:15;17.45;;;8.93;;
18887;SDS011;9576;47.792;9.628;2023-09-07T07:25:17;12.40;;;7.25;;
18887;SDS011;9576;47.792;9.628;2023-09-07T07:28:20;19.08;;;8.27;;
18887;SDS011;9576;47.792;9.628;2023-09-07T07:31:22;20.05;;;7.95;;
18887;SDS011;9576;47.792;9.628;2023-09-07T07:34:24;13.02;;;7.75;;
18887;SDS011;9576;47.792;9.628;2023-09-07T07:37:26;16.65;;;8.15;;
18887;SDS011;9576;47.792;9.628;2023-09-07T07:40:33;17.02;;;8.88;;
18887;SDS011;9576;47.792;9.628;2023-09-07T07:43:37;15.75;;;8.43;;
18887;SDS011;9576;47.792;9.628;2023-09-07T07:46:39;14.88;;;8.25;;
18887;SDS011;9576;47.792;9.628;2023-09-07T07:49:41;23.02;;;8.38;;
18887;SDS011;9576;47.792;9.628;2023-09-07T07:52:43;15.75;;;8.30;;
18887;SDS011;9576;47.792;9.628;2023-09-07T07:55:45;13.60;;;9.15;;
18887;SDS011;9576;47.792;9.628;2023-09-07T07:58:50;15.68;;;8.32;;
18887;SDS011;9576;47.792;9.628;2023-09-07T08:01:52;12.23;;;8.45;;
18887;SDS011;9576;47.792;9.628;2023-09-07T08:04:54;17.98;;;8.18;;
18887;SDS011;9576;47.792;9.628;2023-09-07T08:07:55;19.88;;;8.57;;
18887;SDS011;9576;47.792;9.628;2023-09-07T08:10:57;17.23;;;8.43;;
18887;SDS011;9576;47.792;9.628;2023-09-07T08:14:06;12.80;;;8.07;;
18887;SDS011;9576;47.792;9.628;2023-09-07T08:17:08;12.70;;;7.88;;
18887;SDS011;9576;47.792;9.628;2023-09-07T08:20:10;15.27;;;8.50;;
18887;SDS011;9576;47.792;9.628;2023-09-07T08:23:12;17.40;;;8.98;;
18887;SDS011;9576;47.792;9.628;2023-09-07T08:26:14;30.33;;;9.38;;
18887;SDS011;9576;47.792;9.628;2023-09-07T08:29:18;31.80;;;8.70;;
18887;SDS011;9576;47.792;9.628;2023-09-07T08:32:20;17.67;;;9.70;;
18887;SDS011;9576;47.792;9.628;2023-09-07T08:35:22;22.75;;;9.43;;
18887;SDS011;9576;47.792;9.628;2023-09-07T08:38:27;19.58;;;8.55;;
18887;SDS011;9576;47.792;9.628;2023-09-07T08:41:30;18.08;;;8.98;;
18887;SDS011;9576;47.792;9.628;2023-09-07T08:44:38;14.32;;;7.97;;
18887;SDS011;9576;47.792;9.628;2023-09-07T08:47:46;19.95;;;8.93;;
18887;SDS011;9576;47.792;9.628;2023-09-07T08:50:50;20.38;;;8.52;;
18887;SDS011;9576;47.792;9.628;2023-09-07T08:53:52;12.70;;;8.15;;
18887;SDS011;9576;47.792;9.628;2023-09-07T08:56:56;18.92;;;8.85;;
18887;SDS011;9576;47.792;9.628;2023-09-07T09:00:00;13.00;;;9.38;;
18887;SDS011;9576;47.792;9.628;2023-09-07T09:03:08;13.73;;;8.40;;
18887;SDS011;9576;47.792;9.628;2023-09-07T09:06:11;11.57;;;8.10;;
18887;SDS011;9576;47.792;9.628;2023-09-07T09:09:21;20.25;;;9.20;;
18887;SDS011;9576;47.792;9.628;2023-09-07T09:12:24;12.93;;;8.35;;
18887;SDS011;9576;47.792;9.628;2023-09-07T09:15:27;17.15;;;8.23;;
18887;SDS011;9576;47.792;9.628;2023-09-07T09:18:29;24.23;;;9.25;;
18887;SDS011;9576;47.792;9.628;2023-09-07T09:21:32;16.02;;;8.65;;
18887;SDS011;9576;47.792;9.628;2023-09-07T09:24:35;24.02;;;9.50;;
18887;SDS011;9576;47.792;9.628;2023-09-07T09:27:37;16.08;;;8.60;;
18887;SDS011;9576;47.792;9.628;2023-09-07T09:30:40;16.52;;;8.82;;
18887;SDS011;9576;47.792;9.628;2023-09-07T09:36:51;15.20;;;8.15;;
18887;SDS011;9576;47.792;9.628;2023-09-07T09:39:54;21.85;;;9.45;;
18887;SDS011;9576;47.792;9.628;2023-09-07T09:42:57;18.48;;;8.63;;
18887;SDS011;9576;47.792;9.628;2023-09-07T09:46:04;15.63;;;7.82;;
18887;SDS011;9576;47.792;9.628;2023-09-07T09:49:07;24.80;;;8.90;;
18887;SDS011;9576;47.792;9.628;2023-09-07T09:52:11;12.52;;;7.68;;
18887;SDS011;9576;47.792;9.628;2023-09-07T09:55:14;18.95;;;9.07;;
18887;SDS011;9576;47.792;9.628;2023-09-07T09:58:21;12.85;;;7.45;;
18887;SDS011;9576;47.792;9.628;2023-09-07T10:01:43;33.05;;;8.07;;
18887;SDS011;9576;47.792;9.628;2023-09-07T10:04:50;21.27;;;8.70;;
18887;SDS011;9576;47.792;9.628;2023-09-07T10:07:52;15.07;;;7.63;;
18887;SDS011;9576;47.792;9.628;2023-09-07T10:10:54;16.88;;;8.50;;
18887;SDS011;9576;47.792;9.628;2023-09-07T10:13:57;13.13;;;7.28;;
18887;SDS011;9576;47.792;9.628;2023-09-07T10:17:01;17.25;;;7.13;;
18887;SDS011;9576;47.792;9.628;2023-09-07T10:20:04;17.40;;;7.00;;
18887;SDS011;9576;47.792;9.628;2023-09-07T10:23:07;15.98;;;8.23;;
18887;SDS011;9576;47.792;9.628;2023-09-07T10:26:12;14.98;;;7.43;;
18887;SDS011;9576;47.792;9.628;2023-09-07T10:29:16;12.80;;;7.45;;
18887;SDS011;9576;47.792;9.628;2023-09-07T10:32:20;12.00;;;7.55;;
18887;SDS011;9576;47.792;9.628;2023-09-07T10:35:22;13.65;;;6.85;;
18887;SDS011;9576;47.792;9.628;2023-09-07T10:38:26;14.65;;;7.03;;
18887;SDS011;9576;47.792;9.628;2023-09-07T10:41:27;10.43;;;7.20;;
18887;SDS011;9576;47.792;9.628;2023-09-07T10:44:29;16.33;;;6.43;;
18887;SDS011;9576;47.792;9.628;2023-09-07T10:47:34;11.55;;;6.10;;
18887;SDS011;9576;47.792;9.628;2023-09-07T10:50:43;24.27;;;6.63;;
18887;SDS011;9576;47.792;9.628;2023-09-07T10:53:46;10.30;;;6.55;;
18887;SDS011;9576;47.792;9.628;2023-09-07T10:56:48;10.57;;;6.10;;
18887;SDS011;9576;47.792;9.628;2023-09-07T10:59:51;15.90;;;6.57;;
18887;SDS011;9576;47.792;9.628;2023-09-07T11:02:56;10.23;;;6.13;;
18887;SDS011;9576;47.792;9.628;2023-09-07T11:05:59;10.05;;;6.63;;
18887;SDS011;9576;47.792;9.628;2023-09-07T11:09:04;15.32;;;6.32;;
18887;SDS011;9576;47.792;9.628;2023-09-07T11:12:11;11.23;;;5.38;;
18887;SDS011;9576;47.792;9.628;2023-09-07T11:15:14;10.73;;;6.90;;
18887;SDS011;9576;47.792;9.628;2023-09-07T11:18:20;16.45;;;6.03;;
18887;SDS011;9576;47.792;9.628;2023-09-07T11:21:22;10.52;;;5.07;;
18887;SDS011;9576;47.792;9.628;2023-09-07T11:24:26;11.27;;;5.82;;
18887;SDS011;9576;47.792;9.628;2023-09-07T11:27:28;6.90;;;5.13;;
18887;SDS011;9576;47.792;9.628;2023-09-07T11:30:31;6.95;;;5.20;;
18887;SDS011;9576;47.792;9.628;2023-09-07T11:33:34;9.32;;;5.32;;
18887;SDS011;9576;47.792;9.628;2023-09-07T11:36:36;10.20;;;5.05;;
18887;SDS011;9576;47.792;9.628;2023-09-07T11:39:38;16.35;;;4.85;;
18887;SDS011;9576;47.792;9.628;2023-09-07T11:42:40;12.70;;;5.15;;
18887;SDS011;9576;47.792;9.628;2023-09-07T11:45:43;10.18;;;4.75;;
18887;SDS011;9576;47.792;9.628;2023-09-07T11:48:48;9.90;;;4.60;;
18887;SDS011;9576;47.792;9.628;2023-09-07T11:51:50;6.28;;;4.32;;
18887;SDS011;9576;47.792;9.628;2023-09-07T11:54:52;9.48;;;3.85;;
18887;SDS011;9576;47.792;9.628;2023-09-07T11:57:54;7.85;;;3.65;;
18887;SDS011;9576;47.792;9.628;2023-09-07T12:00:56;10.25;;;3.97;;
18887;SDS011;9576;47.792;9.628;2023-09-07T12:04:00;7.82;;;4.15;;
18887;SDS011;9576;47.792;9.628;2023-09-07T12:07:03;11.35;;;4.13;;
18887;SDS011;9576;47.792;9.628;2023-09-07T12:10:06;10.00;;;3.75;;
18887;SDS011;9576;47.792;9.628;2023-09-07T12:13:10;6.38;;;3.88;;
18887;SDS011;9576;47.792;9.628;2023-09-07T12:16:12;14.73;;;4.00;;
18887;SDS011;9576;47.792;9.628;2023-09-07T12:19:15;5.53;;;4.07;;
18887;SDS011;9576;47.792;9.628;2023-09-07T12:22:17;6.07;;;3.70;;
18887;SDS011;9576;47.792;9.628;2023-09-07T12:25:19;10.35;;;4.10;;
18887;SDS011;9576;47.792;9.628;2023-09-07T12:28:21;8.25;;;4.32;;
18887;SDS011;9576;47.792;9.628;2023-09-07T12:31:23;10.90;;;4.40;;
18887;SDS011;9576;47.792;9.628;2023-09-07T12:34:26;7.10;;;4.82;;
18887;SDS011;9576;47.792;9.628;2023-09-07T12:37:28;8.77;;;4.57;;
18887;SDS011;9576;47.792;9.628;2023-09-07T12:40:30;16.20;;;4.35;;
18887;SDS011;9576;47.792;9.628;2023-09-07T12:43:32;9.45;;;4.32;;
18887;SDS011;9576;47.792;9.628;2023-09-07T12:46:34;29.45;;;5.50;;
18887;SDS011;9576;47.792;9.628;2023-09-07T12:49:38;7.38;;;4.47;;
18887;SDS011;9576;47.792;9.628;2023-09-07T12:52:42;6.82;;;3.90;;
18887;SDS011;9576;47.792;9.628;2023-09-07T12:55:43;8.20;;;5.75;;
18887;SDS011;9576;47.792;9.628;2023-09-07T12:58:45;6.50;;;4.30;;
18887;SDS011;9576;47.792;9.628;2023-09-07T13:01:47;8.27;;;4.55;;
18887;SDS011;9576;47.792;9.628;2023-09-07T13:04:53;11.45;;;4.57;;
18887;SDS011;9576;47.792;9.628;2023-09-07T13:07:55;7.03;;;4.35;;
18887;SDS011;9576;47.792;9.628;2023-09-07T13:10:59;12.93;;;4.50;;
18887;SDS011;9576;47.792;9.628;2023-09-07T13:14:01;6.53;;;3.70;;
18887;SDS011;9576;47.792;9.628;2023-09-07T13:17:03;10.18;;;4.43;;
18887;SDS011;9576;47.792;9.628;2023-09-07T13:20:07;13.38;;;4.75;;
18887;SDS011;9576;47.792;9.628;2023-09-07T13:23:09;6.43;;;4.50;;
18887;SDS011;9576;47.792;9.628;2023-09-07T13:26:11;9.25;;;4.82;;
18887;SDS011;9576;47.792;9.628;2023-09-07T13:29:13;15.07;;;4.82;;
18887;SDS011;9576;47.792;9.628;2023-09-07T13:32:16;11.90;;;4.47;;
18887;SDS011;9576;47.792;9.628;2023-09-07T13:35:19;6.72;;;4.50;;
18887;SDS011;9576;47.792;9.628;2023-09-07T13:38:21;14.07;;;4.53;;
18887;SDS011;9576;47.792;9.628;2023-09-07T13:41:23;15.75;;;4.40;;
18887;SDS011;9576;47.792;9.628;2023-09-07T13:44:25;6.15;;;4.10;;
18887;SDS011;9576;47.792;9.628;2023-09-07T13:47:27;6.93;;;4.60;;
18887;SDS011;9576;47.792;9.628;2023-09-07T13:50:30;8.38;;;4.57;;
18887;SDS011;9576;47.792;9.628;2023-09-07T13:53:32;5.35;;;4.65;;
18887;SDS011;9576;47.792;9.628;2023-09-07T13:56:34;5.97;;;4.38;;
18887;SDS011;9576;47.792;9.628;2023-09-07T13:59:37;12.90;;;4.72;;
18887;SDS011;9576;47.792;9.628;2023-09-07T14:02:39;6.90;;;4.63;;
18887;SDS011;9576;47.792;9.628;2023-09-07T14:05:42;6.32;;;4.65;;
18887;SDS011;9576;47.792;9.628;2023-09-07T14:08:44;10.63;;;4.28;;
18887;SDS011;9576;47.792;9.628;2023-09-07T14:11:46;10.32;;;5.45;;
18887;SDS011;9576;47.792;9.628;2023-09-07T14:14:48;7.07;;;4.80;;
18887;SDS011;9576;47.792;9.628;2023-09-07T14:17:50;6.20;;;4.63;;
18887;SDS011;9576;47.792;9.628;2023-09-07T14:20:53;7.75;;;5.03;;
18887;SDS011;9576;47.792;9.628;2023-09-07T14:23:57;14.48;;;4.85;;
18887;SDS011;9576;47.792;9.628;2023-09-07T14:27:01;8.13;;;5.07;;
18887;SDS011;9576;47.792;9.628;2023-09-07T14:30:04;8.32;;;4.25;;
18887;SDS011;9576;47.792;9.628;2023-09-07T14:33:07;7.70;;;4.50;;
18887;SDS011;9576;47.792;9.628;2023-09-07T14:36:10;5.82;;;4.47;;
18887;SDS011;9576;47.792;9.628;2023-09-07T14:39:12;7.17;;;4.13;;
18887;SDS011;9576;47.792;9.628;2023-09-07T14:42:14;9.75;;;5.18;;
18887;SDS011;9576;47.792;9.628;2023-09-07T14:45:17;9.43;;;4.53;;
18887;SDS011;9576;47.792;9.628;2023-09-07T14:48:19;7.18;;;4.47;;
18887;SDS011;9576;47.792;9.628;2023-09-07T14:51:22;9.57;;;4.25;;
18887;SDS011;9576;47.792;9.628;2023-09-07T14:54:24;8.20;;;5.33;;
18887;SDS011;9576;47.792;9.628;2023-09-07T14:57:26;8.20;;;4.88;;
18887;SDS011;9576;47.792;9.628;2023-09-07T15:00:28;11.82;;;5.72;;
18887;SDS011;9576;47.792;9.628;2023-09-07T15:06:35;7.55;;;4.57;;
18887;SDS011;9576;47.792;9.628;2023-09-07T15:09:37;10.13;;;4.80;;
18887;SDS011;9576;47.792;9.628;2023-09-07T15:12:39;8.50;;;4.47;;
18887;SDS011;9576;47.792;9.628;2023-09-07T15:15:41;7.95;;;5.07;;
18887;SDS011;9576;47.792;9.628;2023-09-07T15:18:43;16.38;;;4.57;;
18887;SDS011;9576;47.792;9.628;2023-09-07T15:21:46;16.55;;;5.03;;
18887;SDS011;9576;47.792;9.628;2023-09-07T15:24:48;7.30;;;3.90;;
18887;SDS011;9576;47.792;9.628;2023-09-07T15:27:50;8.40;;;4.28;;
18887;SDS011;9576;47.792;9.628;2023-09-07T15:30:52;9.38;;;4.43;;
18887;SDS011;9576;47.792;9.628;2023-09-07T15:33:54;10.23;;;4.22;;
18887;SDS011;9576;47.792;9.628;2023-09-07T15:36:57;8.73;;;4.10;;
18887;SDS011;9576;47.792;9.628;2023-09-07T15:39:59;6.23;;;4.40;;
18887;SDS011;9576;47.792;9.628;2023-09-07T15:43:01;8.30;;;4.70;;
18887;SDS011;9576;47.792;9.628;2023-09-07T15:46:13;7.35;;;4.55;;
18887;SDS011;9576;47.792;9.628;2023-09-07T15:49:16;14.93;;;4.18;;
18887;SDS011;9576;47.792;9.628;2023-09-07T15:52:21;7.72;;;4.80;;
18887;SDS011;9576;47.792;9.628;2023-09-07T15:55:37;8.20;;;4.63;;
18887;SDS011;9576;47.792;9.628;2023-09-07T15:58:39;11.70;;;4.97;;
18887;SDS011;9576;47.792;9.628;2023-09-07T16:01:41;12.93;;;5.38;;
18887;SDS011;9576;47.792;9.628;2023-09-07T16:04:49;7.30;;;4.93;;
18887;SDS011;9576;47.792;9.628;2023-09-07T16:07:57;7.63;;;5.47;;
18887;SDS011;9576;47.792;9.628;2023-09-07T16:11:02;8.70;;;4.88;;
18887;SDS011;9576;47.792;9.628;2023-09-07T16:14:05;12.93;;;4.80;;
18887;SDS011;9576;47.792;9.628;2023-09-07T16:17:09;9.67;;;4.73;;
18887;SDS011;9576;47.792;9.628;2023-09-07T16:20:12;8.75;;;6.22;;
18887;SDS011;9576;47.792;9.628;2023-09-07T16:23:22;18.38;;;5.18;;
18887;SDS011;9576;47.792;9.628;2023-09-07T16:26:24;11.27;;;5.25;;
18887;SDS011;9576;47.792;9.628;2023-09-07T16:29:27;8.85;;;5.07;;
18887;SDS011;9576;47.792;9.628;2023-09-07T16:32:30;10.15;;;5.15;;
18887;SDS011;9576;47.792;9.628;2023-09-07T16:35:36;8.70;;;4.97;;
18887;SDS011;9576;47.792;9.628;2023-09-07T16:38:59;11.75;;;5.00;;
18887;SDS011;9576;47.792;9.628;2023-09-07T16:42:01;12.18;;;5.03;;
18887;SDS011;9576;47.792;9.628;2023-09-07T16:45:03;8.35;;;5.20;;
18887;SDS011;9576;47.792;9.628;2023-09-07T16:48:07;8.57;;;4.73;;
18887;SDS011;9576;47.792;9.628;2023-09-07T16:51:13;7.75;;;5.40;;
18887;SDS011;9576;47.792;9.628;2023-09-07T16:54:17;7.43;;;5.00;;
18887;SDS011;9576;47.792;9.628;2023-09-07T16:57:32;7.17;;;4.93;;
18887;SDS011;9576;47.792;9.628;2023-09-07T17:00:49;6.40;;;4.82;;
18887;SDS011;9576;47.792;9.628;2023-09-07T17:03:53;14.82;;;5.85;;
18887;SDS011;9576;47.792;9.628;2023-09-07T17:06:56;11.55;;;6.03;;
18887;SDS011;9576;47.792;9.628;2023-09-07T17:10:01;10.60;;;4.72;;
18887;SDS011;9576;47.792;9.628;2023-09-07T17:13:03;7.80;;;4.78;;
18887;SDS011;9576;47.792;9.628;2023-09-07T17:16:05;7.45;;;5.07;;
18887;SDS011;9576;47.792;9.628;2023-09-07T17:19:08;13.50;;;5.80;;
18887;SDS011;9576;47.792;9.628;2023-09-07T17:22:10;8.68;;;5.10;;
18887;SDS011;9576;47.792;9.628;2023-09-07T17:25:15;8.38;;;5.70;;
18887;SDS011;9576;47.792;9.628;2023-09-07T17:28:17;9.15;;;5.22;;
18887;SDS011;9576;47.792;9.628;2023-09-07T17:31:19;7.40;;;5.38;;
18887;SDS011;9576;47.792;9.628;2023-09-07T17:34:22;19.05;;;5.97;;
18887;SDS011;9576;47.792;9.628;2023-09-07T17:37:24;21.30;;;5.43;;
18887;SDS011;9576;47.792;9.628;2023-09-07T17:40:28;11.77;;;6.43;;
18887;SDS011;9576;47.792;9.628;2023-09-07T17:43:30;13.98;;;5.72;;
18887;SDS011;9576;47.792;9.628;2023-09-07T17:46:32;10.95;;;6.60;;
18887;SDS011;9576;47.792;9.628;2023-09-07T17:49:34;15.90;;;6.10;;
18887;SDS011;9576;47.792;9.628;2023-09-07T17:52:36;13.85;;;6.30;;
18887;SDS011;9576;47.792;9.628;2023-09-07T17:55:39;19.77;;;6.68;;
18887;SDS011;9576;47.792;9.628;2023-09-07T17:58:41;9.82;;;6.35;;
18887;SDS011;9576;47.792;9.628;2023-09-07T18:01:44;15.43;;;9.00;;
18887;SDS011;9576;47.792;9.628;2023-09-07T18:04:46;25.05;;;11.38;;
18887;SDS011;9576;47.792;9.628;2023-09-07T18:07:48;24.40;;;8.52;;
18887;SDS011;9576;47.792;9.628;2023-09-07T18:10:51;9.88;;;6.60;;
18887;SDS011;9576;47.792;9.628;2023-09-07T18:13:53;15.40;;;7.20;;
18887;SDS011;9576;47.792;9.628;2023-09-07T18:16:55;10.45;;;7.22;;
18887;SDS011;9576;47.792;9.628;2023-09-07T18:19:58;12.50;;;6.43;;
18887;SDS011;9576;47.792;9.628;2023-09-07T18:23:00;9.55;;;6.45;;
18887;SDS011;9576;47.792;9.628;2023-09-07T18:26:03;10.18;;;6.35;;
18887;SDS011;9576;47.792;9.628;2023-09-07T18:29:05;10.75;;;6.43;;
18887;SDS011;9576;47.792;9.628;2023-09-07T18:32:07;10.20;;;6.60;;
18887;SDS011;9576;47.792;9.628;2023-09-07T18:35:09;21.60;;;6.10;;